AirNav   Phillips 66 Aviation Fuel
 
 375 users online  

7TX2 Falcon's Nest Heliport
Austin, Texas, USA

GOING TO AUSTIN?


FAA INFORMATION EFFECTIVE 20 JULY 2017

Location

FAA Identifier: 7TX2
Lat/Long: 30-25-09.0000N / 097-52-36.0000W
30-25.150000N / 097-52.600000W
30.4191667 / -97.8766667
(estimated)
Elevation: 900 ft. / 274 m (estimated)
From city: 20 miles NW of AUSTIN, TX
Time zone: UTC -5 (UTC -6 during Standard Time)
Zip code: 78732

Heliport Operations

Heliport use: Private use. Permission required prior to landing
Activation date: 06/2004
Control tower: no
ARTCC: HOUSTON CENTER
FSS: SAN ANGELO FLIGHT SERVICE STATION
Attendance: UNATNDD
Segmented circle: no

Heliport Communications

WX ASOS at RYW (7 nm NW): 119.375 (512-267-1365)
WX AWOS-3 at EDC (16 nm E): 118.825 (512-616-2967)
WX ASOS at AUS (17 nm SE): PHONE 512-369-7881
WX AWOS-3 at GTU (19 nm NE): 118.6 (512-869-3430)

Nearby radio navigation aids

VOR radial/distance  VOR name  Freq  Var
CWKr272/18.1CENTEX VORTAC112.8006E
GRKr178/37.0GRAY VOR/DME111.8007E

Heliport Services

Runway Information

Helipad H1

Dimensions: 20 x 20 ft. / 6 x 6 m
Surface: concrete
Traffic pattern: leftleft

Heliport Ownership and Management from official FAA records

Ownership: Privately-owned
Owner: E. CRAIG NEMEC
6750 COMANCHE TRAIL
AUSTIN, TX 78732
Phone 214-616-4500
Manager: E. CRAIG NEMEC
6750 COMANCHE TRAIL
AUSTIN, TX 78732
Phone 214-616-4500

Heliport Operational Statistics

Aircraft based on the field: 1
Helicopters: 1
    

Instrument Procedures

There are no published instrument procedures at 7TX2.

Some nearby airports with instrument procedures:

KRYW - Lago Vista TX - Rusty Allen Airport (7 nm NW)
3R9 - Lakeway Airpark (7 nm SW)
KEDC - Austin Executive Airport (16 nm E)
KAUS - Austin-Bergstrom International Airport (17 nm SE)
KGTU - Georgetown Municipal Airport (19 nm NE)
 
Loc | Ops | Rwys | IFR | FBO | Links
Com | Nav | Svcs | Stats | Notes


 
Area around 7TX2 (Falcon's Nest Heliport)
 
Road maps at: MapQuest Bing Google
 
Aerial photo
No photo
 
Sectional chart

 
Airport distance calculator
Flying to Falcon's Nest Heliport? Find the distance to fly.

From to 7TX2

Sunrise and sunset
Times for 22-Jul-2017
 Local
(UTC-5)
 Zulu
(UTC)
Morning civil twilight06:1811:18
Sunrise06:4511:45
Sunset20:3101:31
Evening civil twilight20:5801:58

Current date and time
Zulu (UTC)  22-Jul-2017 06:47:20
Local (UTC-5)  22-Jul-2017 01:47:20
 
METAR
KRYW 
7nm NW 
220635Z AUTO 18004KT 10SM CLR 28/22 A3000 RMK AO2 T02770217
KATT 
12nm SE 
220551Z AUTO VRB04KT 10SM CLR 29/22 A2998 RMK AO2 SLP135 60000 T02890217 10378 20289 404000250 51012
KAUS 
12nm SE 
220553Z 19007KT 10SM FEW200 28/23 A2996 RMK AO2 SLP132 T02830228 10372 20283 403830222 50012
KEDC 
16nm E 
220635Z AUTO 00000KT 27/23 A2998 RMK AO2
KGTU 
18nm NE 
220150Z 15008KT 10SM FEW060 34/18 A2991
TAF
KAUS 
12nm SE 
220539Z 2206/2312 17009KT P6SM FEW200 FM221100 18007KT P6SM SCT015 SCT250 FM221500 18008KT P6SM FEW060 FM230000 15009KT P6SM SCT250
NOTAMs
Click for the latest NOTAMs
NOTAMs are issued by the DoD/FAA and will open in a separate window not controlled by AirNav.

 

 
 

Would you like to see your business listed on this page?

 If your business provides an interesting product or service to pilots, flight crews, aircraft, or users of the Falcon's Nest Heliport, you should consider listing it here.  To start the listing process, click on the button below
 
Add a business
 

Other Pages about Falcon's Nest Heliport

Update a link
 
Copyright © AirNav, LLC. All rights reserved. Privacy Policy  Contact